sensor_id;sensor_type;location;lat;lon;timestamp;temperature;humidity
11087;DHT22;5597;47.588;9.642;2023-07-30T00:00:42;18.10;99.90
11087;DHT22;5597;47.588;9.642;2023-07-30T00:03:07;18.10;99.90
11087;DHT22;5597;47.588;9.642;2023-07-30T00:05:33;18.10;99.90
11087;DHT22;5597;47.588;9.642;2023-07-30T00:07:58;18.10;99.90
11087;DHT22;5597;47.588;9.642;2023-07-30T00:10:24;18.10;99.90
11087;DHT22;5597;47.588;9.642;2023-07-30T00:12:50;18.10;99.90
11087;DHT22;5597;47.588;9.642;2023-07-30T00:15:15;18.10;99.90
11087;DHT22;5597;47.588;9.642;2023-07-30T00:17:41;18.00;99.90
11087;DHT22;5597;47.588;9.642;2023-07-30T00:20:07;18.10;99.90
11087;DHT22;5597;47.588;9.642;2023-07-30T00:22:33;18.00;99.90
11087;DHT22;5597;47.588;9.642;2023-07-30T00:24:59;18.00;99.90
11087;DHT22;5597;47.588;9.642;2023-07-30T00:27:24;18.00;99.90
11087;DHT22;5597;47.588;9.642;2023-07-30T00:29:50;18.00;99.90
11087;DHT22;5597;47.588;9.642;2023-07-30T00:32:16;18.00;99.90
11087;DHT22;5597;47.588;9.642;2023-07-30T00:34:42;18.00;99.90
11087;DHT22;5597;47.588;9.642;2023-07-30T00:37:08;18.00;99.90
11087;DHT22;5597;47.588;9.642;2023-07-30T00:39:33;18.00;99.90
11087;DHT22;5597;47.588;9.642;2023-07-30T00:41:59;18.00;99.90
11087;DHT22;5597;47.588;9.642;2023-07-30T00:44:25;18.10;99.90
11087;DHT22;5597;47.588;9.642;2023-07-30T00:46:50;18.00;99.90
11087;DHT22;5597;47.588;9.642;2023-07-30T00:49:16;18.00;99.90
11087;DHT22;5597;47.588;9.642;2023-07-30T00:51:42;18.00;99.90
11087;DHT22;5597;47.588;9.642;2023-07-30T00:54:09;18.10;99.90
11087;DHT22;5597;47.588;9.642;2023-07-30T00:56:35;18.10;99.90
11087;DHT22;5597;47.588;9.642;2023-07-30T00:59:01;18.10;99.90
11087;DHT22;5597;47.588;9.642;2023-07-30T01:01:26;18.10;99.90
11087;DHT22;5597;47.588;9.642;2023-07-30T01:03:52;18.10;99.90
11087;DHT22;5597;47.588;9.642;2023-07-30T01:06:18;18.10;99.90
11087;DHT22;5597;47.588;9.642;2023-07-30T01:08:46;18.10;99.90
11087;DHT22;5597;47.588;9.642;2023-07-30T01:11:12;18.10;99.90
11087;DHT22;5597;47.588;9.642;2023-07-30T01:13:39;18.10;99.90
11087;DHT22;5597;47.588;9.642;2023-07-30T01:16:04;18.00;99.90
11087;DHT22;5597;47.588;9.642;2023-07-30T01:18:32;18.00;99.90
11087;DHT22;5597;47.588;9.642;2023-07-30T01:20:58;18.00;99.90
11087;DHT22;5597;47.588;9.642;2023-07-30T01:23:24;17.90;99.90
11087;DHT22;5597;47.588;9.642;2023-07-30T01:26:04;17.90;99.90
11087;DHT22;5597;47.588;9.642;2023-07-30T01:28:36;17.90;99.90
11087;DHT22;5597;47.588;9.642;2023-07-30T01:31:03;17.90;99.90
11087;DHT22;5597;47.588;9.642;2023-07-30T01:33:30;17.90;99.90
11087;DHT22;5597;47.588;9.642;2023-07-30T01:35:57;18.00;99.90
11087;DHT22;5597;47.588;9.642;2023-07-30T01:38:24;18.00;99.90
11087;DHT22;5597;47.588;9.642;2023-07-30T01:40:50;18.00;99.90
11087;DHT22;5597;47.588;9.642;2023-07-30T01:43:16;18.00;99.90
11087;DHT22;5597;47.588;9.642;2023-07-30T01:45:42;18.00;99.90
11087;DHT22;5597;47.588;9.642;2023-07-30T01:48:07;18.00;99.90
11087;DHT22;5597;47.588;9.642;2023-07-30T01:50:33;18.00;99.90
11087;DHT22;5597;47.588;9.642;2023-07-30T01:52:58;18.00;99.90
11087;DHT22;5597;47.588;9.642;2023-07-30T01:55:24;18.00;99.90
11087;DHT22;5597;47.588;9.642;2023-07-30T01:57:50;18.00;99.90
11087;DHT22;5597;47.588;9.642;2023-07-30T02:00:15;18.00;99.90
11087;DHT22;5597;47.588;9.642;2023-07-30T02:02:41;18.00;99.90
11087;DHT22;5597;47.588;9.642;2023-07-30T02:05:06;18.10;99.90
11087;DHT22;5597;47.588;9.642;2023-07-30T02:07:32;18.00;99.90
11087;DHT22;5597;47.588;9.642;2023-07-30T02:09:57;18.00;99.90
11087;DHT22;5597;47.588;9.642;2023-07-30T02:12:23;18.00;99.90
11087;DHT22;5597;47.588;9.642;2023-07-30T02:14:49;18.00;99.90
11087;DHT22;5597;47.588;9.642;2023-07-30T02:17:14;18.00;99.90
11087;DHT22;5597;47.588;9.642;2023-07-30T02:19:40;18.00;99.90
11087;DHT22;5597;47.588;9.642;2023-07-30T02:22:06;18.00;99.90
11087;DHT22;5597;47.588;9.642;2023-07-30T02:24:31;18.00;99.90
11087;DHT22;5597;47.588;9.642;2023-07-30T02:26:57;18.00;99.90
11087;DHT22;5597;47.588;9.642;2023-07-30T02:29:22;17.90;99.90
11087;DHT22;5597;47.588;9.642;2023-07-30T02:31:48;17.90;99.90
11087;DHT22;5597;47.588;9.642;2023-07-30T02:34:13;17.90;99.90
11087;DHT22;5597;47.588;9.642;2023-07-30T02:36:39;17.90;99.90
11087;DHT22;5597;47.588;9.642;2023-07-30T02:39:04;17.90;99.90
11087;DHT22;5597;47.588;9.642;2023-07-30T02:41:30;17.90;99.90
11087;DHT22;5597;47.588;9.642;2023-07-30T02:43:55;17.90;99.90
11087;DHT22;5597;47.588;9.642;2023-07-30T02:46:21;17.80;99.90
11087;DHT22;5597;47.588;9.642;2023-07-30T02:48:46;17.80;99.90
11087;DHT22;5597;47.588;9.642;2023-07-30T02:51:12;17.80;99.90
11087;DHT22;5597;47.588;9.642;2023-07-30T02:53:37;17.80;99.90
11087;DHT22;5597;47.588;9.642;2023-07-30T02:56:03;17.80;99.90
11087;DHT22;5597;47.588;9.642;2023-07-30T02:58:28;17.80;99.90
11087;DHT22;5597;47.588;9.642;2023-07-30T03:00:54;17.80;99.90
11087;DHT22;5597;47.588;9.642;2023-07-30T03:03:20;17.80;99.90
11087;DHT22;5597;47.588;9.642;2023-07-30T03:05:45;17.80;99.90
11087;DHT22;5597;47.588;9.642;2023-07-30T03:08:11;17.80;99.90
11087;DHT22;5597;47.588;9.642;2023-07-30T03:10:36;17.80;99.90
11087;DHT22;5597;47.588;9.642;2023-07-30T03:13:02;17.70;99.90
11087;DHT22;5597;47.588;9.642;2023-07-30T03:15:28;17.70;99.90
11087;DHT22;5597;47.588;9.642;2023-07-30T03:17:53;17.70;99.90
11087;DHT22;5597;47.588;9.642;2023-07-30T03:20:19;17.70;99.90
11087;DHT22;5597;47.588;9.642;2023-07-30T03:22:44;17.70;99.90
11087;DHT22;5597;47.588;9.642;2023-07-30T03:25:10;17.70;99.90
11087;DHT22;5597;47.588;9.642;2023-07-30T03:27:35;17.60;99.90
11087;DHT22;5597;47.588;9.642;2023-07-30T03:30:01;17.60;99.90
11087;DHT22;5597;47.588;9.642;2023-07-30T03:32:26;17.60;99.90
11087;DHT22;5597;47.588;9.642;2023-07-30T03:34:52;17.60;99.90
11087;DHT22;5597;47.588;9.642;2023-07-30T03:37:17;17.60;99.90
11087;DHT22;5597;47.588;9.642;2023-07-30T03:39:43;17.60;99.90
11087;DHT22;5597;47.588;9.642;2023-07-30T03:42:08;17.60;99.90
11087;DHT22;5597;47.588;9.642;2023-07-30T03:44:34;17.50;99.90
11087;DHT22;5597;47.588;9.642;2023-07-30T03:47:00;17.60;99.90
11087;DHT22;5597;47.588;9.642;2023-07-30T03:49:25;17.60;99.90
11087;DHT22;5597;47.588;9.642;2023-07-30T03:51:51;17.50;99.90
11087;DHT22;5597;47.588;9.642;2023-07-30T03:54:17;17.50;99.90
11087;DHT22;5597;47.588;9.642;2023-07-30T03:56:42;17.50;99.90
11087;DHT22;5597;47.588;9.642;2023-07-30T03:59:08;17.50;99.90
11087;DHT22;5597;47.588;9.642;2023-07-30T04:01:34;17.50;99.90
11087;DHT22;5597;47.588;9.642;2023-07-30T04:03:59;17.50;99.90
11087;DHT22;5597;47.588;9.642;2023-07-30T04:06:25;17.50;99.90
11087;DHT22;5597;47.588;9.642;2023-07-30T04:08:50;17.50;99.90
11087;DHT22;5597;47.588;9.642;2023-07-30T04:11:16;17.50;99.90
11087;DHT22;5597;47.588;9.642;2023-07-30T04:13:42;17.40;99.90
11087;DHT22;5597;47.588;9.642;2023-07-30T04:16:07;17.40;99.90
11087;DHT22;5597;47.588;9.642;2023-07-30T04:18:33;17.40;99.90
11087;DHT22;5597;47.588;9.642;2023-07-30T04:20:58;17.40;99.90
11087;DHT22;5597;47.588;9.642;2023-07-30T04:23:24;17.50;99.90
11087;DHT22;5597;47.588;9.642;2023-07-30T04:25:50;17.50;99.90
11087;DHT22;5597;47.588;9.642;2023-07-30T04:28:16;17.50;99.90
11087;DHT22;5597;47.588;9.642;2023-07-30T04:30:42;17.60;99.90
11087;DHT22;5597;47.588;9.642;2023-07-30T04:33:08;17.60;99.90
11087;DHT22;5597;47.588;9.642;2023-07-30T04:35:33;17.70;99.90
11087;DHT22;5597;47.588;9.642;2023-07-30T04:37:59;17.70;99.90
11087;DHT22;5597;47.588;9.642;2023-07-30T04:40:24;17.70;99.90
11087;DHT22;5597;47.588;9.642;2023-07-30T04:42:50;17.70;99.90
11087;DHT22;5597;47.588;9.642;2023-07-30T04:45:16;17.80;99.90
11087;DHT22;5597;47.588;9.642;2023-07-30T04:47:41;17.80;99.90
11087;DHT22;5597;47.588;9.642;2023-07-30T04:50:07;17.90;99.90
11087;DHT22;5597;47.588;9.642;2023-07-30T04:52:33;17.90;99.90
11087;DHT22;5597;47.588;9.642;2023-07-30T04:54:58;17.90;99.90
11087;DHT22;5597;47.588;9.642;2023-07-30T04:57:24;18.00;99.90
11087;DHT22;5597;47.588;9.642;2023-07-30T04:59:49;18.00;99.90
11087;DHT22;5597;47.588;9.642;2023-07-30T05:02:15;18.10;99.90
11087;DHT22;5597;47.588;9.642;2023-07-30T05:04:40;18.10;99.90
11087;DHT22;5597;47.588;9.642;2023-07-30T05:07:06;18.10;99.90
11087;DHT22;5597;47.588;9.642;2023-07-30T05:09:31;18.20;99.90
11087;DHT22;5597;47.588;9.642;2023-07-30T05:11:57;18.20;99.90
11087;DHT22;5597;47.588;9.642;2023-07-30T05:14:23;18.30;99.90
11087;DHT22;5597;47.588;9.642;2023-07-30T05:16:49;18.30;99.90
11087;DHT22;5597;47.588;9.642;2023-07-30T05:19:15;18.40;99.90
11087;DHT22;5597;47.588;9.642;2023-07-30T05:21:41;18.40;99.90
11087;DHT22;5597;47.588;9.642;2023-07-30T05:24:07;18.40;99.90
11087;DHT22;5597;47.588;9.642;2023-07-30T05:26:33;18.50;99.90
11087;DHT22;5597;47.588;9.642;2023-07-30T05:28:59;18.50;99.90
11087;DHT22;5597;47.588;9.642;2023-07-30T05:31:24;18.50;99.90
11087;DHT22;5597;47.588;9.642;2023-07-30T05:33:50;18.50;99.90
11087;DHT22;5597;47.588;9.642;2023-07-30T05:36:15;18.50;99.90
11087;DHT22;5597;47.588;9.642;2023-07-30T05:38:41;18.50;99.90
11087;DHT22;5597;47.588;9.642;2023-07-30T05:41:06;18.50;99.90
11087;DHT22;5597;47.588;9.642;2023-07-30T05:43:32;18.50;99.90
11087;DHT22;5597;47.588;9.642;2023-07-30T05:45:57;18.60;99.90
11087;DHT22;5597;47.588;9.642;2023-07-30T05:48:23;18.70;99.90
11087;DHT22;5597;47.588;9.642;2023-07-30T05:50:49;18.80;99.90
11087;DHT22;5597;47.588;9.642;2023-07-30T05:53:14;18.80;99.90
11087;DHT22;5597;47.588;9.642;2023-07-30T05:55:40;18.90;99.90
11087;DHT22;5597;47.588;9.642;2023-07-30T05:58:05;18.90;99.90
11087;DHT22;5597;47.588;9.642;2023-07-30T06:00:31;19.00;99.90
11087;DHT22;5597;47.588;9.642;2023-07-30T06:02:57;19.10;99.90
11087;DHT22;5597;47.588;9.642;2023-07-30T06:05:22;19.20;99.90
11087;DHT22;5597;47.588;9.642;2023-07-30T06:07:48;19.30;99.90
11087;DHT22;5597;47.588;9.642;2023-07-30T06:10:13;19.40;99.90
11087;DHT22;5597;47.588;9.642;2023-07-30T06:12:39;19.50;99.90
11087;DHT22;5597;47.588;9.642;2023-07-30T06:15:06;19.60;99.90
11087;DHT22;5597;47.588;9.642;2023-07-30T06:17:31;19.60;99.90
11087;DHT22;5597;47.588;9.642;2023-07-30T06:19:57;19.70;99.90
11087;DHT22;5597;47.588;9.642;2023-07-30T06:22:23;19.70;99.90
11087;DHT22;5597;47.588;9.642;2023-07-30T06:24:48;19.70;99.90
11087;DHT22;5597;47.588;9.642;2023-07-30T06:27:14;19.80;99.90
11087;DHT22;5597;47.588;9.642;2023-07-30T06:29:39;19.80;99.90
11087;DHT22;5597;47.588;9.642;2023-07-30T06:32:05;19.90;99.90
11087;DHT22;5597;47.588;9.642;2023-07-30T06:34:31;19.90;99.90
11087;DHT22;5597;47.588;9.642;2023-07-30T06:36:56;19.90;99.90
11087;DHT22;5597;47.588;9.642;2023-07-30T06:39:22;20.00;99.90
11087;DHT22;5597;47.588;9.642;2023-07-30T06:41:48;20.00;99.90
11087;DHT22;5597;47.588;9.642;2023-07-30T06:44:13;20.10;99.90
11087;DHT22;5597;47.588;9.642;2023-07-30T06:46:39;20.10;99.90
11087;DHT22;5597;47.588;9.642;2023-07-30T06:49:04;20.20;99.90
11087;DHT22;5597;47.588;9.642;2023-07-30T06:51:30;20.20;99.90
11087;DHT22;5597;47.588;9.642;2023-07-30T06:53:56;20.20;99.90
11087;DHT22;5597;47.588;9.642;2023-07-30T06:56:22;20.20;99.90
11087;DHT22;5597;47.588;9.642;2023-07-30T06:58:47;20.20;99.90
11087;DHT22;5597;47.588;9.642;2023-07-30T07:01:13;20.30;99.90
11087;DHT22;5597;47.588;9.642;2023-07-30T07:03:38;20.40;99.90
11087;DHT22;5597;47.588;9.642;2023-07-30T07:06:04;20.50;99.90
11087;DHT22;5597;47.588;9.642;2023-07-30T07:08:30;20.60;99.90
11087;DHT22;5597;47.588;9.642;2023-07-30T07:10:56;20.80;99.90
11087;DHT22;5597;47.588;9.642;2023-07-30T07:13:21;21.10;99.90
11087;DHT22;5597;47.588;9.642;2023-07-30T07:15:47;21.50;99.90
11087;DHT22;5597;47.588;9.642;2023-07-30T07:18:13;21.70;99.90
11087;DHT22;5597;47.588;9.642;2023-07-30T07:20:38;21.80;99.90
11087;DHT22;5597;47.588;9.642;2023-07-30T07:23:04;22.00;99.90
11087;DHT22;5597;47.588;9.642;2023-07-30T07:25:29;22.10;99.90
11087;DHT22;5597;47.588;9.642;2023-07-30T07:27:55;22.30;99.90
11087;DHT22;5597;47.588;9.642;2023-07-30T07:30:21;22.60;99.90
11087;DHT22;5597;47.588;9.642;2023-07-30T07:32:46;22.80;99.90
11087;DHT22;5597;47.588;9.642;2023-07-30T07:35:19;22.90;99.90
11087;DHT22;5597;47.588;9.642;2023-07-30T07:37:44;22.90;99.90
11087;DHT22;5597;47.588;9.642;2023-07-30T07:40:10;22.90;99.90
11087;DHT22;5597;47.588;9.642;2023-07-30T07:42:37;22.90;99.90
11087;DHT22;5597;47.588;9.642;2023-07-30T07:45:03;22.90;99.90
11087;DHT22;5597;47.588;9.642;2023-07-30T07:47:29;22.80;99.90
11087;DHT22;5597;47.588;9.642;2023-07-30T07:49:55;22.90;99.90
11087;DHT22;5597;47.588;9.642;2023-07-30T07:52:20;22.80;99.90
11087;DHT22;5597;47.588;9.642;2023-07-30T07:54:46;22.80;99.90
11087;DHT22;5597;47.588;9.642;2023-07-30T07:57:11;22.70;99.90
11087;DHT22;5597;47.588;9.642;2023-07-30T07:59:37;22.60;99.90
11087;DHT22;5597;47.588;9.642;2023-07-30T08:02:03;22.50;99.90
11087;DHT22;5597;47.588;9.642;2023-07-30T08:04:28;22.40;99.90
11087;DHT22;5597;47.588;9.642;2023-07-30T08:06:54;22.30;99.90
11087;DHT22;5597;47.588;9.642;2023-07-30T08:09:19;22.10;99.90
11087;DHT22;5597;47.588;9.642;2023-07-30T08:11:45;22.00;99.90
11087;DHT22;5597;47.588;9.642;2023-07-30T08:14:10;21.90;99.90
11087;DHT22;5597;47.588;9.642;2023-07-30T08:16:36;21.80;99.90
11087;DHT22;5597;47.588;9.642;2023-07-30T08:19:02;21.80;99.90
11087;DHT22;5597;47.588;9.642;2023-07-30T08:21:27;21.70;99.90
11087;DHT22;5597;47.588;9.642;2023-07-30T08:23:53;21.60;99.90
11087;DHT22;5597;47.588;9.642;2023-07-30T08:26:18;21.60;99.90
11087;DHT22;5597;47.588;9.642;2023-07-30T08:28:44;21.60;99.90
11087;DHT22;5597;47.588;9.642;2023-07-30T08:31:09;21.60;99.90
11087;DHT22;5597;47.588;9.642;2023-07-30T08:33:35;21.60;99.90
11087;DHT22;5597;47.588;9.642;2023-07-30T08:36:00;21.70;99.90
11087;DHT22;5597;47.588;9.642;2023-07-30T08:38:27;22.00;99.90
11087;DHT22;5597;47.588;9.642;2023-07-30T08:40:53;22.20;99.90
11087;DHT22;5597;47.588;9.642;2023-07-30T08:43:19;22.40;99.90
11087;DHT22;5597;47.588;9.642;2023-07-30T08:45:44;22.50;99.90
11087;DHT22;5597;47.588;9.642;2023-07-30T08:48:10;22.50;99.90
11087;DHT22;5597;47.588;9.642;2023-07-30T08:50:36;22.70;99.90
11087;DHT22;5597;47.588;9.642;2023-07-30T08:53:03;23.20;99.90
11087;DHT22;5597;47.588;9.642;2023-07-30T08:55:29;23.60;99.90
11087;DHT22;5597;47.588;9.642;2023-07-30T08:57:59;23.70;99.90
11087;DHT22;5597;47.588;9.642;2023-07-30T09:00:25;23.60;99.90
11087;DHT22;5597;47.588;9.642;2023-07-30T09:02:54;23.40;99.90
11087;DHT22;5597;47.588;9.642;2023-07-30T09:05:21;23.30;99.90
11087;DHT22;5597;47.588;9.642;2023-07-30T09:07:48;23.20;99.90
11087;DHT22;5597;47.588;9.642;2023-07-30T09:10:14;23.20;99.90
11087;DHT22;5597;47.588;9.642;2023-07-30T09:12:40;23.20;99.90
11087;DHT22;5597;47.588;9.642;2023-07-30T09:15:06;23.20;99.90
11087;DHT22;5597;47.588;9.642;2023-07-30T09:17:35;23.30;99.90
11087;DHT22;5597;47.588;9.642;2023-07-30T09:20:02;23.30;99.90
11087;DHT22;5597;47.588;9.642;2023-07-30T09:22:30;23.30;99.90
11087;DHT22;5597;47.588;9.642;2023-07-30T09:25:01;23.50;99.90
11087;DHT22;5597;47.588;9.642;2023-07-30T09:27:28;23.90;99.90
11087;DHT22;5597;47.588;9.642;2023-07-30T09:29:56;24.10;99.90
11087;DHT22;5597;47.588;9.642;2023-07-30T09:32:30;23.90;99.90
11087;DHT22;5597;47.588;9.642;2023-07-30T09:35:10;24.00;99.90
11087;DHT22;5597;47.588;9.642;2023-07-30T09:37:38;24.10;99.90
11087;DHT22;5597;47.588;9.642;2023-07-30T09:40:06;24.20;99.90
11087;DHT22;5597;47.588;9.642;2023-07-30T09:42:31;24.30;99.90
11087;DHT22;5597;47.588;9.642;2023-07-30T09:44:59;24.50;99.90
11087;DHT22;5597;47.588;9.642;2023-07-30T09:47:30;24.60;99.90
11087;DHT22;5597;47.588;9.642;2023-07-30T09:49:56;24.90;99.90
11087;DHT22;5597;47.588;9.642;2023-07-30T09:52:22;25.10;99.90
11087;DHT22;5597;47.588;9.642;2023-07-30T09:54:49;25.20;99.90
11087;DHT22;5597;47.588;9.642;2023-07-30T09:57:15;25.20;99.90
11087;DHT22;5597;47.588;9.642;2023-07-30T09:59:41;25.20;99.90
11087;DHT22;5597;47.588;9.642;2023-07-30T10:02:08;25.20;99.90
11087;DHT22;5597;47.588;9.642;2023-07-30T10:04:38;25.00;99.90
11087;DHT22;5597;47.588;9.642;2023-07-30T10:07:11;24.80;99.90
11087;DHT22;5597;47.588;9.642;2023-07-30T10:09:40;24.60;99.90
11087;DHT22;5597;47.588;9.642;2023-07-30T10:12:16;24.50;99.90
11087;DHT22;5597;47.588;9.642;2023-07-30T10:14:43;24.30;99.90
11087;DHT22;5597;47.588;9.642;2023-07-30T10:17:12;24.10;99.90
11087;DHT22;5597;47.588;9.642;2023-07-30T10:19:38;24.00;99.90
11087;DHT22;5597;47.588;9.642;2023-07-30T10:24:38;23.80;99.90
11087;DHT22;5597;47.588;9.642;2023-07-30T10:27:08;23.90;99.90
11087;DHT22;5597;47.588;9.642;2023-07-30T10:29:35;23.90;99.90
11087;DHT22;5597;47.588;9.642;2023-07-30T10:32:01;23.80;99.90
11087;DHT22;5597;47.588;9.642;2023-07-30T10:34:44;23.70;99.90
11087;DHT22;5597;47.588;9.642;2023-07-30T10:37:10;23.60;99.90
11087;DHT22;5597;47.588;9.642;2023-07-30T10:39:35;23.60;99.90
11087;DHT22;5597;47.588;9.642;2023-07-30T10:42:01;23.50;99.90
11087;DHT22;5597;47.588;9.642;2023-07-30T10:44:31;23.40;99.90
11087;DHT22;5597;47.588;9.642;2023-07-30T10:46:59;23.50;99.90
11087;DHT22;5597;47.588;9.642;2023-07-30T10:49:25;23.70;99.90
11087;DHT22;5597;47.588;9.642;2023-07-30T10:51:57;23.80;99.90
11087;DHT22;5597;47.588;9.642;2023-07-30T10:54:23;23.80;99.90
11087;DHT22;5597;47.588;9.642;2023-07-30T10:56:49;23.90;99.90
11087;DHT22;5597;47.588;9.642;2023-07-30T10:59:15;23.90;99.90
11087;DHT22;5597;47.588;9.642;2023-07-30T11:01:43;23.90;99.90
11087;DHT22;5597;47.588;9.642;2023-07-30T11:04:11;23.90;99.90
11087;DHT22;5597;47.588;9.642;2023-07-30T11:06:37;23.80;99.90
11087;DHT22;5597;47.588;9.642;2023-07-30T11:09:02;23.80;99.90
11087;DHT22;5597;47.588;9.642;2023-07-30T11:11:28;23.80;99.90
11087;DHT22;5597;47.588;9.642;2023-07-30T11:13:54;23.80;99.90
11087;DHT22;5597;47.588;9.642;2023-07-30T11:16:19;23.80;99.90
11087;DHT22;5597;47.588;9.642;2023-07-30T11:18:45;23.80;99.90
11087;DHT22;5597;47.588;9.642;2023-07-30T11:21:14;24.00;99.90
11087;DHT22;5597;47.588;9.642;2023-07-30T11:23:41;24.20;99.90
11087;DHT22;5597;47.588;9.642;2023-07-30T11:26:09;24.40;99.90
11087;DHT22;5597;47.588;9.642;2023-07-30T11:28:39;24.50;99.90
11087;DHT22;5597;47.588;9.642;2023-07-30T11:31:06;24.60;99.90
11087;DHT22;5597;47.588;9.642;2023-07-30T11:33:34;24.80;99.90
11087;DHT22;5597;47.588;9.642;2023-07-30T11:36:02;25.10;99.90
11087;DHT22;5597;47.588;9.642;2023-07-30T11:38:28;25.20;99.90
11087;DHT22;5597;47.588;9.642;2023-07-30T11:40:55;25.30;99.90
11087;DHT22;5597;47.588;9.642;2023-07-30T11:43:22;25.30;99.90
11087;DHT22;5597;47.588;9.642;2023-07-30T11:45:48;25.50;99.90
11087;DHT22;5597;47.588;9.642;2023-07-30T11:48:14;25.70;99.90
11087;DHT22;5597;47.588;9.642;2023-07-30T11:53:12;26.30;99.90
11087;DHT22;5597;47.588;9.642;2023-07-30T11:55:39;26.40;99.90
11087;DHT22;5597;47.588;9.642;2023-07-30T11:58:06;26.20;99.90
11087;DHT22;5597;47.588;9.642;2023-07-30T12:00:36;26.20;99.90
11087;DHT22;5597;47.588;9.642;2023-07-30T12:03:03;26.20;99.90
11087;DHT22;5597;47.588;9.642;2023-07-30T12:05:36;26.00;99.90
11087;DHT22;5597;47.588;9.642;2023-07-30T12:08:03;26.00;99.90
11087;DHT22;5597;47.588;9.642;2023-07-30T12:10:49;25.80;99.90
11087;DHT22;5597;47.588;9.642;2023-07-30T12:13:18;25.80;99.90
11087;DHT22;5597;47.588;9.642;2023-07-30T12:15:53;26.10;99.90
11087;DHT22;5597;47.588;9.642;2023-07-30T12:18:20;26.40;99.90
11087;DHT22;5597;47.588;9.642;2023-07-30T12:20:46;26.50;99.90
11087;DHT22;5597;47.588;9.642;2023-07-30T12:23:13;26.50;99.90
11087;DHT22;5597;47.588;9.642;2023-07-30T12:25:38;26.50;99.90
11087;DHT22;5597;47.588;9.642;2023-07-30T12:28:05;26.70;99.90
11087;DHT22;5597;47.588;9.642;2023-07-30T12:30:30;27.00;99.90
11087;DHT22;5597;47.588;9.642;2023-07-30T12:32:56;27.30;99.90
11087;DHT22;5597;47.588;9.642;2023-07-30T12:35:22;27.60;99.90
11087;DHT22;5597;47.588;9.642;2023-07-30T12:37:48;27.60;99.90
11087;DHT22;5597;47.588;9.642;2023-07-30T12:40:14;27.70;99.90
11087;DHT22;5597;47.588;9.642;2023-07-30T12:42:40;27.90;99.90
11087;DHT22;5597;47.588;9.642;2023-07-30T12:45:06;27.90;99.90
11087;DHT22;5597;47.588;9.642;2023-07-30T12:47:32;28.10;99.90
11087;DHT22;5597;47.588;9.642;2023-07-30T12:50:00;28.40;99.90
11087;DHT22;5597;47.588;9.642;2023-07-30T12:52:26;28.60;99.90
11087;DHT22;5597;47.588;9.642;2023-07-30T12:54:51;28.80;99.90
11087;DHT22;5597;47.588;9.642;2023-07-30T12:57:17;29.10;99.90
11087;DHT22;5597;47.588;9.642;2023-07-30T12:59:43;29.40;99.90
11087;DHT22;5597;47.588;9.642;2023-07-30T13:02:09;29.50;99.90
11087;DHT22;5597;47.588;9.642;2023-07-30T13:04:34;29.50;99.90
11087;DHT22;5597;47.588;9.642;2023-07-30T13:07:00;29.50;99.90
11087;DHT22;5597;47.588;9.642;2023-07-30T13:09:25;29.40;99.90
11087;DHT22;5597;47.588;9.642;2023-07-30T13:11:51;29.30;99.90
11087;DHT22;5597;47.588;9.642;2023-07-30T13:14:16;29.40;99.90
11087;DHT22;5597;47.588;9.642;2023-07-30T13:16:42;29.70;99.10
11087;DHT22;5597;47.588;9.642;2023-07-30T13:19:08;29.80;97.10
11087;DHT22;5597;47.588;9.642;2023-07-30T13:21:33;29.80;98.20
11087;DHT22;5597;47.588;9.642;2023-07-30T13:23:59;29.80;98.00
11087;DHT22;5597;47.588;9.642;2023-07-30T13:26:24;29.90;97.50
11087;DHT22;5597;47.588;9.642;2023-07-30T13:28:50;29.80;96.50
11087;DHT22;5597;47.588;9.642;2023-07-30T13:31:15;29.80;98.20
11087;DHT22;5597;47.588;9.642;2023-07-30T13:33:41;30.00;97.60
11087;DHT22;5597;47.588;9.642;2023-07-30T13:36:07;30.10;96.80
11087;DHT22;5597;47.588;9.642;2023-07-30T13:38:34;30.30;97.50
11087;DHT22;5597;47.588;9.642;2023-07-30T13:40:59;30.30;95.00
11087;DHT22;5597;47.588;9.642;2023-07-30T13:43:25;30.10;94.00
11087;DHT22;5597;47.588;9.642;2023-07-30T13:45:50;29.80;96.50
11087;DHT22;5597;47.588;9.642;2023-07-30T13:48:17;29.70;94.60
11087;DHT22;5597;47.588;9.642;2023-07-30T13:50:43;29.40;95.30
11087;DHT22;5597;47.588;9.642;2023-07-30T13:53:08;29.50;95.20
11087;DHT22;5597;47.588;9.642;2023-07-30T13:55:34;29.60;95.10
11087;DHT22;5597;47.588;9.642;2023-07-30T13:57:59;29.60;94.00
11087;DHT22;5597;47.588;9.642;2023-07-30T14:00:25;29.10;93.50
11087;DHT22;5597;47.588;9.642;2023-07-30T14:02:50;28.60;93.30
11087;DHT22;5597;47.588;9.642;2023-07-30T14:05:17;28.30;93.50
11087;DHT22;5597;47.588;9.642;2023-07-30T14:07:43;27.90;94.20
11087;DHT22;5597;47.588;9.642;2023-07-30T14:10:09;27.70;95.00
11087;DHT22;5597;47.588;9.642;2023-07-30T14:12:34;27.80;95.40
11087;DHT22;5597;47.588;9.642;2023-07-30T14:15:00;27.90;94.80
11087;DHT22;5597;47.588;9.642;2023-07-30T14:17:26;28.00;95.90
11087;DHT22;5597;47.588;9.642;2023-07-30T14:19:52;28.30;95.80
11087;DHT22;5597;47.588;9.642;2023-07-30T14:22:17;28.70;95.10
11087;DHT22;5597;47.588;9.642;2023-07-30T14:24:43;28.90;93.80
11087;DHT22;5597;47.588;9.642;2023-07-30T14:27:10;29.20;93.10
11087;DHT22;5597;47.588;9.642;2023-07-30T14:29:36;29.40;92.40
11087;DHT22;5597;47.588;9.642;2023-07-30T14:32:01;29.30;92.30
11087;DHT22;5597;47.588;9.642;2023-07-30T14:34:27;29.20;92.10
11087;DHT22;5597;47.588;9.642;2023-07-30T14:36:52;29.20;90.90
11087;DHT22;5597;47.588;9.642;2023-07-30T14:39:18;29.10;89.50
11087;DHT22;5597;47.588;9.642;2023-07-30T14:41:43;28.90;90.80
11087;DHT22;5597;47.588;9.642;2023-07-30T14:44:09;28.70;90.80
11087;DHT22;5597;47.588;9.642;2023-07-30T14:46:34;28.50;90.30
11087;DHT22;5597;47.588;9.642;2023-07-30T14:49:00;28.40;90.20
11087;DHT22;5597;47.588;9.642;2023-07-30T14:51:26;28.50;91.30
11087;DHT22;5597;47.588;9.642;2023-07-30T14:53:51;28.60;90.90
11087;DHT22;5597;47.588;9.642;2023-07-30T14:56:17;28.70;89.70
11087;DHT22;5597;47.588;9.642;2023-07-30T14:58:42;28.60;90.00
11087;DHT22;5597;47.588;9.642;2023-07-30T15:01:08;28.70;87.00
11087;DHT22;5597;47.588;9.642;2023-07-30T15:03:33;28.60;83.70
11087;DHT22;5597;47.588;9.642;2023-07-30T15:05:59;28.50;84.20
11087;DHT22;5597;47.588;9.642;2023-07-30T15:08:24;28.30;87.50
11087;DHT22;5597;47.588;9.642;2023-07-30T15:10:50;28.40;85.10
11087;DHT22;5597;47.588;9.642;2023-07-30T15:13:15;28.30;82.80
11087;DHT22;5597;47.588;9.642;2023-07-30T15:15:41;28.10;86.50
11087;DHT22;5597;47.588;9.642;2023-07-30T15:18:07;28.10;85.40
11087;DHT22;5597;47.588;9.642;2023-07-30T15:20:34;28.00;83.20
11087;DHT22;5597;47.588;9.642;2023-07-30T15:23:00;27.80;85.90
11087;DHT22;5597;47.588;9.642;2023-07-30T15:25:25;27.80;83.90
11087;DHT22;5597;47.588;9.642;2023-07-30T15:27:51;27.70;85.60
11087;DHT22;5597;47.588;9.642;2023-07-30T15:30:16;27.70;85.50
11087;DHT22;5597;47.588;9.642;2023-07-30T15:32:44;27.80;85.80
11087;DHT22;5597;47.588;9.642;2023-07-30T15:35:10;27.90;84.90
11087;DHT22;5597;47.588;9.642;2023-07-30T15:37:37;27.90;85.70
11087;DHT22;5597;47.588;9.642;2023-07-30T15:40:03;28.00;86.30
11087;DHT22;5597;47.588;9.642;2023-07-30T15:42:29;28.10;83.50